ADDS METAR Data INFO
IDs: Format: Raw Decoded Include TAF

Data at: 0252 UTC 21 Oct 2017

KVNC 210235Z AUTO 07009KT 10SM FEW031 BKN120 25/22 A3008 RMK AO2
KVNC 210215Z AUTO 06010KT 10SM OVC120 25/22 A3008 RMK AO2
KVNC 210155Z AUTO 07010KT 10SM OVC120 25/22 A3008 RMK AO2
KVNC 210135Z AUTO 07009KT 10SM FEW032 FEW075 BKN110 25/22 A3007 RMK AO2
KVNC 210115Z AUTO 06009G16KT 10SM 26/22 A3007 RMK AO2
KVNC 210055Z AUTO 07011G16KT 10SM FEW029 SCT038 BKN070 26/22 A3006 RMK AO2
KVNC 210035Z AUTO 06014KT 10SM FEW075 BKN110 26/22 A3005 RMK AO2
KVNC 210015Z AUTO 06012KT 10SM SCT033 SCT044 BKN055 26/22 A3005 RMK AO2
KVNC 202355Z AUTO 07009KT 10SM BKN033 BKN043 OVC100 26/22 A3004 RMK AO2
KVNC 202335Z AUTO 07009KT 10SM FEW041 BKN050 OVC100 26/22 A3004 RMK AO2
KVNC 202315Z AUTO 06012KT 10SM SCT050 BKN060 OVC100 26/22 A3003 RMK AO2
KVNC 202255Z AUTO 06013KT 10SM FEW040 SCT049 BKN055 27/22 A3003 RMK AO2 P0001
KVNC 202235Z AUTO 07014KT 10SM FEW034 BKN040 OVC065 27/23 A3002 RMK AO2
KVNC 202215Z AUTO 10010G17KT 7SM FEW033 SCT042 BKN048 28/22 A3001 RMK AO2
KVNC 202155Z AUTO 06012G21KT 10SM FEW045 FEW050 SCT085 29/20 A3000 RMK AO2
KVNC 202135Z AUTO 05012KT 10SM CLR 30/21 A3000 RMK AO2
KVNC 202115Z AUTO 06012KT 10SM CLR 30/21 A3000 RMK AO2
KVNC 202055Z AUTO 06011G18KT 10SM FEW085 30/20 A3001 RMK AO2
KVNC 202035Z AUTO 05014KT 10SM CLR 30/20 A3001 RMK AO2
KVNC 202015Z AUTO 06014G21KT 10SM FEW065 FEW075 30/20 A3001 RMK AO2
KVNC 201955Z AUTO 07010G19KT 10SM FEW075 31/21 A3002 RMK AO2
KVNC 201935Z AUTO 08014G19KT 10SM FEW040 FEW070 31/21 A3002 RMK AO2
KVNC 201915Z AUTO 05015KT 10SM FEW041 FEW047 FEW065 31/21 A3002 RMK AO2
KVNC 201855Z AUTO 06014KT 10SM FEW039 FEW046 FEW070 31/21 A3002 RMK AO2
KVNC 201835Z AUTO 05013G19KT 10SM FEW040 FEW047 FEW055 31/21 A3003 RMK AO2
KVNC 201815Z AUTO 07013G19KT 10SM FEW044 31/21 A3004 RMK AO2
KVNC 201755Z AUTO 07013G18KT 040V100 10SM FEW038 31/21 A3005 RMK AO2
KVNC 201735Z AUTO 07013G20KT 10SM FEW037 30/21 A3006 RMK AO2
KVNC 201715Z AUTO 05014G19KT 10SM FEW034 SCT040 30/21 A3007 RMK AO2
KVNC 201655Z AUTO 07012G18KT 10SM FEW034 30/21 A3007 RMK AO2
KVNC 201635Z AUTO 08013G21KT 10SM FEW029 30/22 A3008 RMK AO2
KVNC 201615Z AUTO 06013KT 10SM SCT028 29/22 A3008 RMK AO2
KVNC 201555Z AUTO 06015KT 10SM FEW028 29/22 A3009 RMK AO2
KVNC 201535Z AUTO 07013G19KT 10SM CLR 29/22 A3009 RMK AO2
KVNC 201515Z AUTO 07016KT 10SM CLR 29/22 A3009 RMK AO2
KVNC 201455Z AUTO 07017G23KT 10SM CLR 28/22 A3009 RMK AO2
KVNC 201435Z AUTO 06016KT 10SM CLR 28/22 A3009 RMK AO2
KVNC 201415Z AUTO 05013G20KT 10SM CLR 27/22 A3010 RMK AO2
KVNC 201355Z AUTO 05017KT 10SM CLR 26/22 A3010 RMK AO2
KVNC 201335Z AUTO 06014G20KT 10SM CLR 25/22 A3010 RMK AO2
KVNC 201315Z AUTO 05012G18KT 10SM CLR 25/22 A3009 RMK AO2
KVNC 201255Z AUTO 05012KT 10SM CLR 24/22 A3009 RMK AO2
KVNC 201235Z AUTO 05009KT 10SM CLR 23/22 A3009 RMK AO2
KVNC 201215Z AUTO 05008KT 10SM CLR 23/22 A3008 RMK AO2
KVNC 201155Z AUTO 04007KT 10SM 23/22 A3009 RMK AO2
KVNC 201135Z AUTO 04007KT 10SM 22/22 A3008 RMK AO2
KVNC 201115Z AUTO 03007KT 10SM 22/22 A3008 RMK AO2
KVNC 201055Z AUTO 04007KT 10SM 22/22 A3007 RMK AO2
KVNC 201035Z AUTO 04006KT 10SM 22/22 A3007 RMK AO2
KVNC 201015Z AUTO 03006KT 10SM 22/22 A3007 RMK AO2
KVNC 200955Z AUTO 03007KT 10SM 23/22 A3006 RMK AO2
KVNC 200915Z AUTO 04007KT 10SM CLR 23/22 A3007 RMK AO2
KVNC 200855Z AUTO 04008KT 10SM FEW018 23/22 A3006 RMK AO2
KVNC 200835Z AUTO 04007KT 10SM BKN018 23/22 A3006 RMK AO2
KVNC 200815Z AUTO 04007KT 10SM SCT019 23/22 A3006 RMK AO2
KVNC 200755Z AUTO 03006KT 10SM SCT018 23/22 A3006 RMK AO2
KVNC 200735Z AUTO 04008KT 10SM CLR 23/22 A3006 RMK AO2
KVNC 200715Z AUTO 04009KT 10SM 24/22 A3006 RMK AO2
KVNC 200655Z AUTO 04010KT 10SM 23/22 A3007 RMK AO2
KVNC 200635Z AUTO 04010KT 10SM 23/22 A3007 RMK AO2
KVNC 200615Z AUTO 04007KT 10SM 23/22 A3008 RMK AO2
KVNC 200555Z AUTO 04007KT 10SM 23/22 A3008 RMK AO2
KVNC 200535Z AUTO 03005KT 10SM 24/22 A3008 RMK AO2
KVNC 200515Z AUTO 04008KT 10SM FEW017 FEW023 FEW030 24/22 A3008 RMK AO2
KVNC 200455Z AUTO 05007KT 10SM FEW018 FEW025 SCT030 24/22 A3008 RMK AO2
KVNC 200435Z AUTO 05007KT 10SM FEW020 FEW025 SCT031 24/22 A3009 RMK AO2
KVNC 200415Z AUTO 7.00000007KT 10SM FEW020 24/22 A3009 RMK AO2
KVNC 200355Z AUTO 05009KT 10SM 24/22 A3009 RMK AO2
KVNC 200335Z AUTO 06008KT 10SM 25/22 A3009 RMK AO2
KVNC 200315Z AUTO 06009KT 10SM CLR 25/22 A3008 RMK AO2
KVNC 200255Z AUTO 06009G15KT 10SM CLR 25/22 A3008 RMK AO2
KVNC 200235Z AUTO 06011KT 10SM 25/22 A3007 RMK AO2
KVNC 200215Z AUTO 05011KT 10SM 26/22 A3007 RMK AO2
KVNC 200155Z AUTO 06010G16KT 10SM CLR 26/22 A3006 RMK AO2
KVNC 200135Z AUTO 05012KT 10SM 26/22 A3006 RMK AO2
KVNC 200115Z AUTO 06012G18KT 10SM CLR 26/21 A3005 RMK AO2
KVNC 200055Z AUTO 06013KT 10SM CLR 27/21 A3005 RMK AO2
KVNC 200035Z AUTO 05014KT 10SM CLR 27/21 A3004 RMK AO2
KVNC 200015Z AUTO 05011G16KT 10SM CLR 27/21 A3004 RMK AO2
KVNC 192355Z AUTO 06012G18KT 10SM CLR 28/21 A3003 RMK AO2
KVNC 192335Z AUTO 04013KT 10SM FEW017 28/21 A3002 RMK AO2
KVNC 192315Z AUTO 05011KT 10SM CLR 28/21 A3002 RMK AO2
KVNC 192255Z AUTO 05014G19KT 10SM FEW041 29/21 A3001 RMK AO2
KVNC 192235Z AUTO 04014G21KT 10SM FEW041 30/21 A3000 RMK AO2
KVNC 192215Z AUTO 04010G17KT 10SM CLR 30/22 A3000 RMK AO2
KVNC 192155Z AUTO 04012KT 10SM CLR 31/21 A3000 RMK AO2
KVNC 192135Z AUTO 04015G20KT 10SM CLR 31/21 A2999 RMK AO2
KVNC 192115Z AUTO 03011G17KT 10SM FEW044 FEW049 31/21 A3000 RMK AO2
KVNC 192055Z AUTO 04009G15KT 10SM FEW045 32/22 A3000 RMK AO2
KVNC 192035Z AUTO 05012G18KT 10SM FEW046 FEW070 31/20 A3000 RMK AO2
KVNC 192015Z AUTO 03013G18KT 10SM FEW047 FEW070 32/21 A2999 RMK AO2
KVNC 191955Z AUTO 08011G16KT 10SM FEW047 32/21 A2999 RMK AO2
KVNC 191935Z AUTO 10.76000011KT 10SM FEW044 32/21 A3000 RMK AO2
KVNC 191915Z AUTO 04007G16KT 010V070 8SM FEW042 32/21 A3001 RMK AO2
KVNC 191855Z AUTO 05012KT 10SM FEW040 31/21 A3001 RMK AO2
KVNC 191835Z AUTO 05013KT 10SM FEW041 31/21 A3002 RMK AO2
KVNC 191815Z AUTO 05011G16KT 10SM FEW037 31/22 A3003 RMK AO2
KVNC 191755Z AUTO 06014KT 10SM FEW036 31/21 A3004 RMK AO2
KVNC 191735Z AUTO 05009G17KT 10SM SCT036 31/22 A3005 RMK AO2
KVNC 191715Z AUTO 05011G17KT 10SM FEW033 30/22 A3006 RMK AO2
KVNC 191655Z AUTO 06011G17KT 10SM SCT032 SCT039 30/22 A3007 RMK AO2
KVNC 191635Z AUTO 03012KT 10SM BKN031 BKN036 30/22 A3008 RMK AO2
KVNC 191615Z AUTO 06014KT 10SM SCT030 29/22 A3008 RMK AO2
KVNC 191555Z AUTO 04013KT 10SM FEW025 FEW030 29/22 A3008 RMK AO2
KVNC 191535Z AUTO 05014KT 10SM FEW025 29/22 A3008 RMK AO2
KVNC 191515Z AUTO 05015KT 10SM CLR 28/22 A3008 RMK AO2
KVNC 191455Z AUTO 05011G19KT 10SM CLR 27/22 A3008 RMK AO2